createdAt,value
2023-01-11T00:01:11.553Z,18.10
2023-01-11T00:03:39.790Z,17.90
2023-01-11T00:06:09.860Z,15.60
2023-01-11T00:08:38.577Z,16.20
2023-01-11T00:11:14.009Z,14.40
2023-01-11T00:13:45.451Z,16.90
2023-01-11T00:16:14.325Z,16.90
2023-01-11T00:18:43.135Z,17.70
2023-01-11T00:21:11.324Z,17.60
2023-01-11T00:23:39.631Z,17.90
2023-01-11T00:26:12.450Z,17.20
2023-01-11T00:28:40.905Z,15.80
2023-01-11T00:31:09.702Z,12.70
2023-01-11T00:33:38.005Z,14.10
2023-01-11T00:36:06.676Z,17.00
2023-01-11T00:38:44.216Z,16.60
2023-01-11T00:41:34.440Z,17.10
2023-01-11T00:44:22.388Z,19.40
2023-01-11T00:47:09.335Z,15.50
2023-01-11T00:49:37.985Z,15.50
2023-01-11T00:52:09.425Z,14.70
2023-01-11T00:54:39.518Z,16.70
2023-01-11T00:57:08.825Z,15.60
2023-01-11T00:59:39.656Z,17.80
2023-01-11T01:02:09.605Z,14.70
2023-01-11T01:04:38.808Z,16.30
2023-01-11T01:07:07.265Z,18.50
2023-01-11T01:09:35.442Z,19.40
2023-01-11T01:12:04.220Z,16.30
2023-01-11T01:14:33.625Z,17.10
2023-01-11T01:17:07.628Z,13.30
2023-01-11T01:19:38.658Z,13.10
2023-01-11T01:22:07.557Z,14.20
2023-01-11T01:24:36.023Z,16.40
2023-01-11T01:27:04.277Z,12.30
2023-01-11T01:29:32.903Z,18.10
2023-01-11T01:32:01.143Z,11.10
2023-01-11T01:34:29.353Z,11.40
2023-01-11T01:36:57.554Z,14.60
2023-01-11T01:39:25.774Z,14.90
2023-01-11T01:41:54.093Z,14.40
2023-01-11T01:44:55.380Z,13.80
2023-01-11T01:47:32.895Z,13.30
2023-01-11T01:50:06.598Z,12.80
2023-01-11T01:52:35.800Z,13.10
2023-01-11T01:55:10.880Z,11.70
2023-01-11T01:57:41.950Z,8.50
2023-01-11T02:00:11.918Z,12.00
2023-01-11T02:02:43.435Z,13.80
2023-01-11T02:05:13.494Z,11.50
2023-01-11T02:07:43.604Z,14.50
2023-01-11T02:10:21.585Z,12.70
2023-01-11T02:13:02.707Z,13.60
2023-01-11T02:15:31.798Z,13.50
2023-01-11T02:18:00.042Z,12.90
2023-01-11T02:20:46.438Z,12.90
2023-01-11T02:23:26.657Z,15.10
2023-01-11T02:26:13.510Z,15.70
2023-01-11T02:28:47.477Z,11.40
2023-01-11T02:31:51.310Z,13.70
2023-01-11T02:34:25.654Z,15.60
2023-01-11T02:37:20.776Z,9.30
2023-01-11T02:40:19.720Z,11.90
2023-01-11T02:43:15.122Z,9.40
2023-01-11T02:46:12.653Z,9.00
2023-01-11T02:49:04.158Z,13.30
2023-01-11T02:51:43.388Z,18.40
2023-01-11T02:54:14.833Z,20.70
2023-01-11T02:56:46.223Z,17.90
2023-01-11T02:59:19.480Z,16.40
2023-01-11T03:01:51.669Z,16.10
2023-01-11T03:04:30.503Z,12.20
2023-01-11T03:07:19.646Z,20.00
2023-01-11T03:10:03.605Z,21.90
2023-01-11T03:12:54.927Z,23.00
2023-01-11T03:15:49.415Z,25.80
2023-01-11T03:18:33.656Z,28.90
2023-01-11T03:21:18.758Z,25.90
2023-01-11T03:24:06.391Z,27.30
2023-01-11T03:27:04.615Z,28.70
2023-01-11T03:29:40.137Z,27.10
2023-01-11T03:32:20.994Z,28.70
2023-01-11T03:34:52.142Z,26.60
2023-01-11T03:37:31.542Z,27.90
2023-01-11T03:40:13.967Z,22.00
2023-01-11T03:43:05.302Z,22.20
2023-01-11T03:45:37.469Z,27.50
2023-01-11T03:48:10.524Z,25.70
2023-01-11T03:50:39.783Z,17.70
2023-01-11T03:53:09.622Z,26.10
2023-01-11T03:55:42.448Z,30.50
2023-01-11T03:58:11.197Z,28.20
2023-01-11T04:00:40.503Z,29.10
2023-01-11T04:03:09.874Z,33.40
2023-01-11T04:05:40.414Z,29.90
2023-01-11T04:08:08.506Z,28.60
2023-01-11T04:10:37.670Z,17.90
2023-01-11T04:13:05.780Z,26.70
2023-01-11T04:15:35.988Z,24.70
2023-01-11T04:18:06.021Z,17.70
2023-01-11T04:20:40.390Z,14.90
2023-01-11T04:23:12.440Z,24.90
2023-01-11T04:25:40.723Z,31.30
2023-01-11T04:28:08.790Z,24.00
2023-01-11T04:30:37.390Z,17.20
2023-01-11T04:33:05.805Z,18.90
2023-01-11T04:35:34.201Z,20.00
2023-01-11T04:38:02.540Z,16.50
2023-01-11T04:40:30.720Z,21.70
2023-01-11T04:43:02.387Z,25.00
2023-01-11T04:45:30.931Z,49.90
2023-01-11T04:47:59.280Z,37.40
2023-01-11T04:50:28.101Z,35.20
2023-01-11T04:53:00.239Z,42.10
2023-01-11T04:55:28.376Z,88.70
2023-01-11T04:57:56.651Z,72.70
2023-01-11T05:00:24.877Z,42.50
2023-01-11T05:02:53.126Z,33.10
2023-01-11T05:05:21.984Z,15.00
2023-01-11T05:07:50.211Z,30.40
2023-01-11T05:10:20.932Z,34.60
2023-01-11T05:12:49.635Z,26.90
2023-01-11T05:15:17.966Z,33.30
2023-01-11T05:17:46.252Z,25.00
2023-01-11T05:20:14.422Z,29.10
2023-01-11T05:22:42.706Z,30.50
2023-01-11T05:25:11.015Z,29.20
2023-01-11T05:27:39.121Z,21.70
2023-01-11T05:30:08.724Z,27.10
2023-01-11T05:32:36.997Z,31.40
2023-01-11T05:35:05.673Z,32.40
2023-01-11T05:37:33.866Z,36.40
2023-01-11T05:40:02.596Z,42.70
2023-01-11T05:42:31.640Z,53.50
2023-01-11T05:45:18.779Z,58.90
2023-01-11T05:47:47.281Z,73.70
2023-01-11T05:50:15.762Z,89.90
2023-01-11T05:52:43.933Z,89.10
2023-01-11T05:55:12.117Z,103.60
2023-01-11T05:57:44.872Z,46.50
2023-01-11T06:00:13.816Z,276.90
2023-01-11T06:02:42.062Z,155.40
2023-01-11T06:05:10.416Z,44.70
2023-01-11T06:07:38.630Z,128.90
2023-01-11T06:10:07.358Z,63.50
2023-01-11T06:12:35.630Z,73.60
2023-01-11T06:15:04.358Z,84.50
2023-01-11T06:17:32.596Z,77.30
2023-01-11T06:20:00.720Z,70.90
2023-01-11T06:22:31.488Z,70.60
2023-01-11T06:24:59.726Z,72.40
2023-01-11T06:27:27.874Z,69.30
2023-01-11T06:29:56.229Z,48.10
2023-01-11T06:32:24.299Z,41.00
2023-01-11T06:34:52.552Z,39.30
2023-01-11T06:37:20.688Z,53.30
2023-01-11T06:39:48.840Z,44.70
2023-01-11T06:42:16.887Z,50.60
2023-01-11T06:44:45.044Z,41.40
2023-01-11T06:47:13.379Z,34.30
2023-01-11T06:49:41.493Z,68.90
2023-01-11T06:52:09.831Z,79.30
2023-01-11T06:54:37.885Z,56.00
2023-01-11T06:57:06.016Z,76.30
2023-01-11T06:59:34.248Z,35.00
2023-01-11T07:02:02.656Z,27.70
2023-01-11T07:04:31.144Z,54.40
2023-01-11T07:06:59.399Z,51.30
2023-01-11T07:09:27.667Z,66.30
2023-01-11T07:11:56.523Z,63.10
2023-01-11T07:14:25.333Z,89.20
2023-01-11T07:16:53.512Z,96.20
2023-01-11T07:19:21.661Z,90.40
2023-01-11T07:21:49.835Z,101.40
2023-01-11T07:24:18.191Z,34.60
2023-01-11T07:26:46.313Z,67.00
2023-01-11T07:29:14.457Z,82.50
2023-01-11T07:31:42.757Z,103.70
2023-01-11T07:34:10.915Z,127.40
2023-01-11T07:36:39.807Z,126.30
2023-01-11T07:39:08.317Z,147.30
2023-01-11T07:41:54.966Z,100.30
2023-01-11T07:44:24.224Z,97.30
2023-01-11T07:46:52.536Z,134.70
2023-01-11T07:49:21.008Z,131.90
2023-01-11T07:51:49.132Z,129.80
2023-01-11T07:54:17.408Z,48.70
2023-01-11T07:56:48.842Z,147.10
2023-01-11T07:59:17.462Z,150.10
2023-01-11T08:01:45.472Z,171.20
2023-01-11T08:04:14.322Z,78.80
2023-01-11T08:06:42.664Z,145.10
2023-01-11T08:09:11.005Z,114.10
2023-01-11T08:11:57.679Z,72.20
2023-01-11T08:14:40.932Z,34.40
2023-01-11T08:17:14.962Z,61.70
2023-01-11T08:19:44.102Z,69.30
2023-01-11T08:22:12.644Z,56.30
2023-01-11T08:24:40.909Z,103.20
2023-01-11T08:27:09.679Z,128.30
2023-01-11T08:29:38.260Z,86.60
2023-01-11T08:32:06.547Z,85.00
2023-01-11T08:34:35.186Z,103.30
2023-01-11T08:37:03.440Z,140.00
2023-01-11T08:39:32.235Z,112.10
2023-01-11T08:42:03.075Z,77.90
2023-01-11T08:44:34.911Z,53.30
2023-01-11T08:47:03.732Z,115.40
2023-01-11T08:49:31.887Z,118.40
2023-01-11T08:52:00.142Z,72.40
2023-01-11T08:54:28.375Z,102.00
2023-01-11T08:56:56.583Z,73.40
2023-01-11T08:59:24.807Z,61.00
2023-01-11T09:01:53.322Z,61.40
2023-01-11T09:04:25.303Z,93.30
2023-01-11T09:06:54.038Z,74.50
2023-01-11T09:09:22.870Z,116.50
2023-01-11T09:11:54.412Z,150.60
2023-01-11T09:14:24.727Z,174.60
2023-01-11T09:16:54.343Z,181.20
2023-01-11T09:19:22.707Z,149.70
2023-01-11T09:21:52.111Z,110.70
2023-01-11T09:24:20.539Z,62.50
2023-01-11T09:31:59.535Z,99.70
2023-01-11T09:34:27.912Z,98.10
2023-01-11T09:36:59.400Z,75.90
2023-01-11T09:39:28.962Z,63.80
2023-01-11T09:42:39.736Z,69.20
2023-01-11T09:45:11.226Z,73.70
2023-01-11T09:47:49.221Z,55.00
2023-01-11T09:50:22.115Z,76.00
2023-01-11T09:52:54.456Z,71.40
2023-01-11T09:55:46.809Z,52.20
2023-01-11T09:58:42.842Z,52.20
2023-01-11T10:01:16.937Z,45.70
2023-01-11T10:03:49.839Z,44.00
2023-01-11T10:06:27.203Z,32.10
2023-01-11T10:18:28.615Z,48.10
2023-01-11T10:18:31.923Z,39.70
2023-01-11T10:21:23.063Z,81.60
2023-01-11T10:24:12.238Z,40.50
2023-01-11T10:26:41.734Z,45.90
2023-01-11T10:29:45.714Z,42.10
2023-01-11T10:32:44.130Z,41.90
2023-01-11T10:35:47.921Z,39.80
2023-01-11T10:38:57.543Z,42.10
2023-01-11T10:41:46.811Z,42.80
2023-01-11T10:44:31.397Z,26.80
2023-01-11T10:47:02.319Z,35.00
2023-01-11T10:49:47.186Z,23.30
2023-01-11T10:52:41.701Z,32.10
2023-01-11T10:55:40.109Z,33.60
2023-01-11T10:58:39.053Z,20.50
2023-01-11T11:01:13.526Z,22.00
2023-01-11T11:04:04.547Z,18.30
2023-01-11T11:10:57.578Z,13.80
2023-01-11T11:13:43.307Z,13.90
2023-01-11T11:17:44.254Z,17.50
2023-01-11T11:23:53.707Z,19.50
2023-01-11T11:27:00.187Z,17.60
2023-01-11T11:30:06.858Z,19.30
2023-01-11T11:33:01.149Z,20.20
2023-01-11T11:35:30.961Z,22.10
2023-01-11T11:37:59.692Z,21.00
2023-01-11T11:41:22.744Z,17.20
2023-01-11T11:44:32.171Z,26.40
2023-01-11T11:47:27.247Z,30.80
2023-01-11T11:50:43.184Z,24.10
2023-01-11T11:53:56.412Z,25.90
2023-01-11T11:56:58.789Z,25.80
2023-01-11T11:59:36.757Z,24.20
2023-01-11T12:02:18.056Z,16.20
2023-01-11T12:04:48.843Z,18.30
2023-01-11T12:07:21.198Z,21.90
2023-01-11T12:10:08.309Z,19.50
2023-01-11T12:13:07.553Z,15.60
2023-01-11T12:15:38.036Z,13.60
2023-01-11T12:18:31.533Z,15.00
2023-01-11T12:21:52.486Z,23.60
2023-01-11T12:24:24.104Z,11.00
2023-01-11T12:27:13.169Z,12.10
2023-01-11T12:29:56.703Z,14.30
2023-01-11T12:32:27.532Z,12.50
2023-01-11T12:35:22.931Z,17.60
2023-01-11T12:38:00.355Z,13.40
2023-01-11T12:41:08.533Z,13.80
2023-01-11T12:43:43.667Z,13.00
2023-01-11T12:46:53.187Z,6.60
2023-01-11T12:49:48.986Z,6.10
2023-01-11T12:52:27.786Z,1.40
2023-01-11T12:55:20.773Z,1.10
2023-01-11T12:58:15.615Z,3.00
2023-01-11T13:01:04.177Z,2.80
2023-01-11T13:04:17.295Z,3.20
2023-01-11T13:07:08.085Z,3.30
2023-01-11T13:10:12.343Z,3.10
2023-01-11T13:13:06.343Z,2.50
2023-01-11T13:16:06.161Z,1.80
2023-01-11T13:18:56.182Z,3.40
2023-01-11T13:21:51.586Z,3.60
2023-01-11T13:24:45.275Z,2.10
2023-01-11T13:27:26.461Z,4.20
2023-01-11T13:30:01.270Z,8.20
2023-01-11T13:32:43.245Z,3.20
2023-01-11T13:35:19.017Z,4.90
2023-01-11T13:38:34.693Z,5.30
2023-01-11T13:41:26.291Z,1.60
2023-01-11T13:44:12.551Z,1.90
2023-01-11T13:46:59.419Z,3.80
2023-01-11T13:49:38.799Z,10.30
2023-01-11T13:52:16.931Z,3.00
2023-01-11T13:55:25.019Z,7.30
2023-01-11T13:58:14.075Z,6.60
2023-01-11T14:00:55.618Z,5.70
2023-01-11T14:04:10.380Z,6.00
2023-01-11T14:07:00.104Z,5.10
2023-01-11T14:13:46.273Z,11.60
2023-01-11T14:16:25.856Z,5.80
2023-01-11T14:19:21.828Z,8.50
2023-01-11T14:22:20.905Z,8.60
2023-01-11T14:25:13.761Z,5.70
2023-01-11T14:28:21.430Z,9.70
2023-01-11T14:30:54.945Z,6.60
2023-01-11T14:33:41.627Z,11.10
2023-01-11T14:36:31.020Z,10.00
2023-01-11T14:39:13.709Z,8.50
2023-01-11T14:41:49.669Z,10.70
2023-01-11T14:44:20.828Z,13.40
2023-01-11T14:47:19.247Z,17.20
2023-01-11T14:50:07.913Z,13.00
2023-01-11T14:52:40.622Z,19.10
2023-01-11T14:55:22.789Z,18.90
2023-01-11T14:57:57.069Z,17.60
2023-01-11T15:00:25.208Z,12.50
2023-01-11T15:02:54.339Z,6.70
2023-01-11T15:05:31.738Z,8.50
2023-01-11T15:08:15.401Z,6.90
2023-01-11T15:11:01.824Z,8.60
2023-01-11T15:13:52.968Z,14.70
2023-01-11T15:16:39.369Z,9.40
2023-01-11T15:19:12.862Z,15.90
2023-01-11T15:22:45.250Z,23.00
2023-01-11T15:25:37.460Z,21.10
2023-01-11T15:28:47.793Z,14.70
2023-01-11T15:31:44.141Z,30.00
2023-01-11T15:34:40.251Z,32.10
2023-01-11T15:40:15.858Z,26.80
2023-01-11T15:43:05.931Z,18.50
2023-01-11T15:46:22.308Z,22.80
2023-01-11T15:49:31.607Z,19.90
2023-01-11T15:52:02.766Z,26.10
2023-01-11T15:54:42.963Z,21.10
2023-01-11T15:57:20.199Z,29.80
2023-01-11T16:00:03.716Z,83.60
2023-01-11T16:03:15.399Z,66.40
2023-01-11T16:06:09.469Z,64.10
2023-01-11T16:09:03.121Z,35.90
2023-01-11T16:11:50.101Z,42.20
2023-01-11T16:14:30.390Z,32.90
2023-01-11T16:16:59.208Z,20.40
2023-01-11T16:19:34.105Z,31.50
2023-01-11T16:22:05.751Z,54.00
2023-01-11T16:24:42.494Z,47.90
2023-01-11T16:27:21.883Z,39.20
2023-01-11T16:29:51.523Z,32.20
2023-01-11T16:32:32.777Z,19.40
2023-01-11T16:35:02.779Z,20.90
2023-01-11T16:37:38.949Z,20.80
2023-01-11T16:40:32.362Z,15.70
2023-01-11T16:43:15.320Z,9.90
2023-01-11T16:45:54.071Z,20.80
2023-01-11T16:48:24.680Z,25.60
2023-01-11T16:51:19.674Z,34.00
2023-01-11T16:53:59.276Z,35.30
2023-01-11T16:56:27.491Z,28.90
2023-01-11T16:59:10.114Z,24.50
2023-01-11T17:02:00.118Z,33.80
2023-01-11T17:04:34.361Z,38.30
2023-01-11T17:07:23.759Z,55.10
2023-01-11T17:09:52.502Z,19.70
2023-01-11T17:12:29.161Z,33.80
2023-01-11T17:15:12.814Z,35.20
2023-01-11T17:17:41.286Z,35.00
2023-01-11T17:20:20.551Z,17.30
2023-01-11T17:22:53.830Z,26.80
2023-01-11T17:25:37.607Z,36.80
2023-01-11T17:28:20.097Z,38.60
2023-01-11T17:30:50.678Z,30.40
2023-01-11T17:33:28.259Z,41.40
2023-01-11T17:35:56.915Z,33.00
2023-01-11T17:38:27.966Z,35.90
2023-01-11T17:40:57.833Z,36.10
2023-01-11T17:43:48.954Z,45.40
2023-01-11T17:46:26.610Z,35.40
2023-01-11T17:49:00.124Z,33.90
2023-01-11T17:51:34.085Z,32.70
2023-01-11T17:54:02.486Z,59.80
2023-01-11T17:56:33.405Z,71.20
2023-01-11T17:59:16.829Z,40.10
2023-01-11T18:01:50.742Z,35.50
2023-01-11T18:04:21.793Z,37.90
2023-01-11T18:06:54.049Z,44.90
2023-01-11T18:09:29.113Z,52.20
2023-01-11T18:12:18.960Z,41.80
2023-01-11T18:14:53.350Z,38.50
2023-01-11T18:17:27.803Z,36.70
2023-01-11T18:19:56.629Z,36.20
2023-01-11T18:22:42.839Z,47.50
2023-01-11T18:25:29.391Z,45.40
2023-01-11T18:28:17.739Z,48.80
2023-01-11T18:30:54.869Z,52.10
2023-01-11T18:33:25.432Z,43.30
2023-01-11T18:36:03.216Z,40.80
2023-01-11T18:38:34.425Z,47.60
2023-01-11T18:41:37.811Z,45.30
2023-01-11T18:44:09.245Z,40.00
2023-01-11T18:46:37.766Z,33.20
2023-01-11T18:49:06.052Z,55.70
2023-01-11T18:51:41.720Z,54.80
2023-01-11T18:54:16.105Z,61.80
2023-01-11T18:56:44.601Z,42.60
2023-01-11T18:59:12.824Z,49.00
2023-01-11T19:01:54.545Z,46.50
2023-01-11T19:04:29.896Z,53.50
2023-01-11T19:06:58.164Z,34.10
2023-01-11T19:09:26.320Z,46.70
2023-01-11T19:11:54.821Z,82.70
2023-01-11T19:14:23.089Z,87.00
2023-01-11T19:16:51.188Z,74.50
2023-01-11T19:19:19.512Z,66.00
2023-01-11T19:21:47.965Z,41.50
2023-01-11T19:24:16.104Z,37.20
2023-01-11T19:26:44.340Z,45.00
2023-01-11T19:29:17.457Z,43.80
2023-01-11T19:31:47.149Z,37.50
2023-01-11T19:34:15.955Z,36.40
2023-01-11T19:36:44.534Z,41.00
2023-01-11T19:39:12.847Z,51.40
2023-01-11T19:42:00.023Z,42.00
2023-01-11T19:44:33.434Z,33.00
2023-01-11T19:47:12.388Z,23.30
2023-01-11T19:49:42.615Z,35.70
2023-01-11T19:52:14.228Z,63.70
2023-01-11T19:54:43.629Z,55.60
2023-01-11T19:57:14.568Z,41.60
2023-01-11T19:59:43.006Z,41.70
2023-01-11T20:02:13.182Z,36.40
2023-01-11T20:04:42.369Z,40.20
2023-01-11T20:07:12.085Z,46.90
2023-01-11T20:09:40.604Z,36.00
2023-01-11T20:12:11.185Z,54.90
2023-01-11T20:14:40.833Z,67.30
2023-01-11T20:17:09.202Z,76.00
2023-01-11T20:19:37.506Z,71.60
2023-01-11T20:22:06.011Z,38.20
2023-01-11T20:24:34.441Z,42.30
2023-01-11T20:27:03.782Z,53.80
2023-01-11T20:29:32.009Z,70.00
2023-01-11T20:32:18.660Z,55.60
2023-01-11T20:34:48.426Z,47.20
2023-01-11T20:37:16.753Z,48.10
2023-01-11T20:39:44.979Z,48.70
2023-01-11T20:42:13.271Z,47.90
2023-01-11T20:44:41.598Z,50.00
2023-01-11T20:47:09.891Z,59.40
2023-01-11T20:49:38.274Z,48.10
2023-01-11T20:52:06.593Z,53.60
2023-01-11T20:54:34.905Z,48.80
2023-01-11T20:57:05.747Z,53.40
2023-01-11T20:59:35.067Z,47.40
2023-01-11T21:02:07.642Z,78.60
2023-01-11T21:04:36.005Z,53.10
2023-01-11T21:07:04.192Z,41.50
2023-01-11T21:09:32.500Z,46.40
2023-01-11T21:12:00.679Z,42.00
2023-01-11T21:14:28.880Z,60.00
2023-01-11T21:16:58.023Z,43.70
2023-01-11T21:19:26.851Z,50.70
2023-01-11T21:21:55.279Z,40.00
2023-01-11T21:24:25.209Z,48.70
2023-01-11T21:26:53.374Z,45.10
2023-01-11T21:29:21.991Z,32.90
2023-01-11T21:31:50.158Z,48.60
2023-01-11T21:34:18.483Z,58.20
2023-01-11T21:36:46.846Z,55.40
2023-01-11T21:39:16.957Z,48.60
2023-01-11T21:42:00.329Z,21.90
2023-01-11T21:44:33.971Z,56.60
2023-01-11T21:47:05.274Z,48.50
2023-01-11T21:49:33.766Z,47.90
2023-01-11T21:52:02.051Z,71.20
2023-01-11T21:54:30.389Z,72.30
2023-01-11T21:56:58.630Z,87.60
2023-01-11T21:59:30.590Z,82.90
2023-01-11T22:01:58.857Z,51.40
2023-01-11T22:04:27.104Z,42.50
2023-01-11T22:07:00.289Z,57.70
2023-01-11T22:09:28.974Z,53.10
2023-01-11T22:11:57.230Z,34.40
2023-01-11T22:14:25.416Z,56.20
2023-01-11T22:16:54.106Z,61.20
2023-01-11T22:19:22.694Z,57.30
2023-01-11T22:21:50.982Z,34.30
2023-01-11T22:24:22.580Z,50.20
2023-01-11T22:26:50.860Z,29.10
2023-01-11T22:29:20.272Z,31.20
2023-01-11T22:31:51.747Z,24.50
2023-01-11T22:34:22.053Z,38.00
2023-01-11T22:36:54.273Z,23.30
2023-01-11T22:39:22.665Z,48.00
2023-01-11T22:41:51.478Z,35.60
2023-01-11T22:44:19.923Z,48.20
2023-01-11T22:46:48.241Z,30.30
2023-01-11T22:49:17.634Z,26.90
2023-01-11T22:51:45.870Z,37.60
2023-01-11T22:54:14.291Z,70.40
2023-01-11T22:56:42.651Z,51.40
2023-01-11T22:59:11.288Z,53.70
2023-01-11T23:01:41.556Z,44.90
2023-01-11T23:04:16.123Z,39.20
2023-01-11T23:06:47.312Z,54.50
2023-01-11T23:09:18.581Z,28.40
2023-01-11T23:12:05.646Z,44.90
2023-01-11T23:14:34.081Z,57.50
2023-01-11T23:17:10.441Z,58.80
2023-01-11T23:19:40.847Z,38.10
2023-01-11T23:22:09.722Z,54.60
2023-01-11T23:24:41.363Z,46.50
2023-01-11T23:27:09.876Z,44.60
2023-01-11T23:29:38.209Z,45.00
2023-01-11T23:32:06.736Z,43.50
2023-01-11T23:34:34.818Z,45.30
2023-01-11T23:37:03.081Z,36.90
2023-01-11T23:39:32.940Z,30.60
2023-01-11T23:42:19.734Z,39.90
2023-01-11T23:44:48.040Z,35.80
2023-01-11T23:47:29.823Z,26.10
2023-01-11T23:50:00.980Z,29.30
2023-01-11T23:52:31.785Z,35.00
2023-01-11T23:55:00.299Z,30.60
2023-01-11T23:57:28.586Z,41.90
2023-01-11T23:59:59.738Z,39.50
